sensor_id;sensor_type;location;lat;lon;timestamp;P1;durP1;ratioP1;P2;durP2;ratioP2
4464;SDS011;2245;48.136;13.428;2023-04-16T00:01:02;6.60;;;4.50;;
4464;SDS011;2245;48.136;13.428;2023-04-16T00:03:29;9.20;;;5.50;;
4464;SDS011;2245;48.136;13.428;2023-04-16T00:05:56;7.17;;;5.47;;
4464;SDS011;2245;48.136;13.428;2023-04-16T00:08:23;6.00;;;5.00;;
4464;SDS011;2245;48.136;13.428;2023-04-16T00:10:50;6.10;;;5.30;;
4464;SDS011;2245;48.136;13.428;2023-04-16T00:13:17;8.93;;;5.93;;
4464;SDS011;2245;48.136;13.428;2023-04-16T00:15:46;8.27;;;5.73;;
4464;SDS011;2245;48.136;13.428;2023-04-16T00:18:12;8.23;;;5.00;;
4464;SDS011;2245;48.136;13.428;2023-04-16T00:20:39;9.73;;;5.27;;
4464;SDS011;2245;48.136;13.428;2023-04-16T00:23:06;5.03;;;4.07;;
4464;SDS011;2245;48.136;13.428;2023-04-16T00:25:33;4.40;;;3.80;;
4464;SDS011;2245;48.136;13.428;2023-04-16T00:28:00;4.63;;;3.47;;
4464;SDS011;2245;48.136;13.428;2023-04-16T00:30:27;5.30;;;4.03;;
4464;SDS011;2245;48.136;13.428;2023-04-16T00:32:55;4.07;;;3.23;;
4464;SDS011;2245;48.136;13.428;2023-04-16T00:35:22;4.43;;;2.60;;
4464;SDS011;2245;48.136;13.428;2023-04-16T00:37:49;4.70;;;2.97;;
4464;SDS011;2245;48.136;13.428;2023-04-16T00:40:16;5.10;;;3.30;;
4464;SDS011;2245;48.136;13.428;2023-04-16T00:42:44;3.50;;;2.70;;
4464;SDS011;2245;48.136;13.428;2023-04-16T00:45:11;2.93;;;2.60;;
4464;SDS011;2245;48.136;13.428;2023-04-16T00:47:38;3.50;;;2.50;;
4464;SDS011;2245;48.136;13.428;2023-04-16T00:50:06;2.87;;;2.27;;
4464;SDS011;2245;48.136;13.428;2023-04-16T00:52:37;2.90;;;1.90;;
4464;SDS011;2245;48.136;13.428;2023-04-16T00:55:04;2.97;;;2.67;;
4464;SDS011;2245;48.136;13.428;2023-04-16T00:57:37;3.00;;;2.63;;
4464;SDS011;2245;48.136;13.428;2023-04-16T01:00:04;3.63;;;2.50;;
4464;SDS011;2245;48.136;13.428;2023-04-16T01:02:32;2.60;;;2.30;;
4464;SDS011;2245;48.136;13.428;2023-04-16T01:04:59;3.60;;;2.60;;
4464;SDS011;2245;48.136;13.428;2023-04-16T01:07:28;2.30;;;2.10;;
4464;SDS011;2245;48.136;13.428;2023-04-16T01:09:54;3.53;;;1.87;;
4464;SDS011;2245;48.136;13.428;2023-04-16T01:12:22;3.60;;;2.60;;
4464;SDS011;2245;48.136;13.428;2023-04-16T01:14:49;4.60;;;2.87;;
4464;SDS011;2245;48.136;13.428;2023-04-16T01:17:15;5.10;;;3.03;;
4464;SDS011;2245;48.136;13.428;2023-04-16T01:19:42;3.70;;;2.60;;
4464;SDS011;2245;48.136;13.428;2023-04-16T01:22:10;2.60;;;2.33;;
4464;SDS011;2245;48.136;13.428;2023-04-16T01:24:37;2.97;;;2.67;;
4464;SDS011;2245;48.136;13.428;2023-04-16T01:27:04;3.33;;;2.17;;
4464;SDS011;2245;48.136;13.428;2023-04-16T01:29:31;3.90;;;2.70;;
4464;SDS011;2245;48.136;13.428;2023-04-16T01:31:59;2.70;;;2.20;;
4464;SDS011;2245;48.136;13.428;2023-04-16T01:34:26;10.53;;;2.57;;
4464;SDS011;2245;48.136;13.428;2023-04-16T01:36:52;3.37;;;2.50;;
4464;SDS011;2245;48.136;13.428;2023-04-16T01:39:21;2.17;;;1.97;;
4464;SDS011;2245;48.136;13.428;2023-04-16T01:41:47;2.50;;;2.10;;
4464;SDS011;2245;48.136;13.428;2023-04-16T01:44:14;3.00;;;2.50;;
4464;SDS011;2245;48.136;13.428;2023-04-16T01:46:41;2.47;;;2.20;;
4464;SDS011;2245;48.136;13.428;2023-04-16T01:49:09;2.40;;;2.20;;
4464;SDS011;2245;48.136;13.428;2023-04-16T01:51:36;2.63;;;2.33;;
4464;SDS011;2245;48.136;13.428;2023-04-16T01:54:03;2.20;;;2.00;;
4464;SDS011;2245;48.136;13.428;2023-04-16T01:56:32;3.47;;;2.07;;
4464;SDS011;2245;48.136;13.428;2023-04-16T01:58:58;2.30;;;2.10;;
4464;SDS011;2245;48.136;13.428;2023-04-16T02:01:26;2.03;;;1.83;;
4464;SDS011;2245;48.136;13.428;2023-04-16T02:03:53;1.63;;;1.40;;
4464;SDS011;2245;48.136;13.428;2023-04-16T02:06:20;1.83;;;1.67;;
4464;SDS011;2245;48.136;13.428;2023-04-16T02:08:46;2.47;;;1.57;;
4464;SDS011;2245;48.136;13.428;2023-04-16T02:11:13;1.87;;;1.70;;
4464;SDS011;2245;48.136;13.428;2023-04-16T02:13:42;2.20;;;2.00;;
4464;SDS011;2245;48.136;13.428;2023-04-16T02:16:09;1.70;;;1.50;;
4464;SDS011;2245;48.136;13.428;2023-04-16T02:18:35;1.53;;;1.43;;
4464;SDS011;2245;48.136;13.428;2023-04-16T02:21:02;2.83;;;1.87;;
4464;SDS011;2245;48.136;13.428;2023-04-16T02:23:30;1.80;;;1.70;;
4464;SDS011;2245;48.136;13.428;2023-04-16T02:25:57;3.27;;;2.03;;
4464;SDS011;2245;48.136;13.428;2023-04-16T02:28:25;2.63;;;2.07;;
4464;SDS011;2245;48.136;13.428;2023-04-16T02:30:53;2.70;;;1.67;;
4464;SDS011;2245;48.136;13.428;2023-04-16T02:33:20;2.80;;;1.70;;
4464;SDS011;2245;48.136;13.428;2023-04-16T02:35:50;1.23;;;1.13;;
4464;SDS011;2245;48.136;13.428;2023-04-16T02:38:17;1.60;;;1.50;;
4464;SDS011;2245;48.136;13.428;2023-04-16T02:40:44;1.87;;;1.70;;
4464;SDS011;2245;48.136;13.428;2023-04-16T02:43:10;2.43;;;1.27;;
4464;SDS011;2245;48.136;13.428;2023-04-16T02:45:37;1.10;;;1.00;;
4464;SDS011;2245;48.136;13.428;2023-04-16T02:48:06;2.70;;;1.80;;
4464;SDS011;2245;48.136;13.428;2023-04-16T02:50:33;1.03;;;0.93;;
4464;SDS011;2245;48.136;13.428;2023-04-16T02:53:00;1.30;;;1.20;;
4464;SDS011;2245;48.136;13.428;2023-04-16T02:55:28;1.80;;;1.33;;
4464;SDS011;2245;48.136;13.428;2023-04-16T02:57:54;0.83;;;0.83;;
4464;SDS011;2245;48.136;13.428;2023-04-16T03:00:21;1.77;;;1.20;;
4464;SDS011;2245;48.136;13.428;2023-04-16T03:02:48;1.17;;;1.00;;
4464;SDS011;2245;48.136;13.428;2023-04-16T03:05:17;1.03;;;0.90;;
4464;SDS011;2245;48.136;13.428;2023-04-16T03:07:43;1.60;;;1.23;;
4464;SDS011;2245;48.136;13.428;2023-04-16T03:10:10;1.63;;;1.00;;
4464;SDS011;2245;48.136;13.428;2023-04-16T03:12:38;1.30;;;1.13;;
4464;SDS011;2245;48.136;13.428;2023-04-16T03:15:05;1.50;;;1.30;;
4464;SDS011;2245;48.136;13.428;2023-04-16T03:17:32;1.20;;;1.03;;
4464;SDS011;2245;48.136;13.428;2023-04-16T03:19:59;2.00;;;1.30;;
4464;SDS011;2245;48.136;13.428;2023-04-16T03:22:28;1.63;;;1.40;;
4464;SDS011;2245;48.136;13.428;2023-04-16T03:24:55;0.93;;;0.87;;
4464;SDS011;2245;48.136;13.428;2023-04-16T03:27:21;0.80;;;0.60;;
4464;SDS011;2245;48.136;13.428;2023-04-16T03:29:48;2.30;;;0.40;;
4464;SDS011;2245;48.136;13.428;2023-04-16T03:32:15;0.70;;;0.70;;
4464;SDS011;2245;48.136;13.428;2023-04-16T03:34:42;0.70;;;0.70;;
4464;SDS011;2245;48.136;13.428;2023-04-16T03:37:09;0.80;;;0.67;;
4464;SDS011;2245;48.136;13.428;2023-04-16T03:39:38;0.70;;;0.70;;
4464;SDS011;2245;48.136;13.428;2023-04-16T03:42:05;0.80;;;0.80;;
4464;SDS011;2245;48.136;13.428;2023-04-16T03:44:32;0.70;;;0.70;;
4464;SDS011;2245;48.136;13.428;2023-04-16T03:46:59;0.73;;;0.73;;
4464;SDS011;2245;48.136;13.428;2023-04-16T03:49:26;0.77;;;0.77;;
4464;SDS011;2245;48.136;13.428;2023-04-16T03:51:53;1.40;;;1.30;;
4464;SDS011;2245;48.136;13.428;2023-04-16T03:54:20;1.50;;;1.40;;
4464;SDS011;2245;48.136;13.428;2023-04-16T03:56:48;1.87;;;1.70;;
4464;SDS011;2245;48.136;13.428;2023-04-16T03:59:16;2.23;;;1.47;;
4464;SDS011;2245;48.136;13.428;2023-04-16T04:01:43;5.73;;;1.60;;
4464;SDS011;2245;48.136;13.428;2023-04-16T04:04:09;1.40;;;1.30;;
4464;SDS011;2245;48.136;13.428;2023-04-16T04:06:36;3.17;;;1.40;;
4464;SDS011;2245;48.136;13.428;2023-04-16T04:09:03;1.77;;;1.50;;
4464;SDS011;2245;48.136;13.428;2023-04-16T04:11:30;1.80;;;1.70;;
4464;SDS011;2245;48.136;13.428;2023-04-16T04:13:58;2.07;;;1.87;;
4464;SDS011;2245;48.136;13.428;2023-04-16T04:16:25;2.17;;;2.00;;
4464;SDS011;2245;48.136;13.428;2023-04-16T04:18:52;1.67;;;1.57;;
4464;SDS011;2245;48.136;13.428;2023-04-16T04:21:19;2.00;;;1.77;;
4464;SDS011;2245;48.136;13.428;2023-04-16T04:23:46;1.93;;;1.83;;
4464;SDS011;2245;48.136;13.428;2023-04-16T04:26:13;2.10;;;1.90;;
4464;SDS011;2245;48.136;13.428;2023-04-16T04:28:40;2.07;;;1.93;;
4464;SDS011;2245;48.136;13.428;2023-04-16T04:31:08;2.97;;;2.10;;
4464;SDS011;2245;48.136;13.428;2023-04-16T04:33:35;1.73;;;1.63;;
4464;SDS011;2245;48.136;13.428;2023-04-16T04:36:02;2.40;;;2.17;;
4464;SDS011;2245;48.136;13.428;2023-04-16T04:38:29;1.80;;;1.70;;
4464;SDS011;2245;48.136;13.428;2023-04-16T04:40:56;2.70;;;2.10;;
4464;SDS011;2245;48.136;13.428;2023-04-16T04:43:24;5.60;;;1.57;;
4464;SDS011;2245;48.136;13.428;2023-04-16T04:45:51;2.77;;;2.27;;
4464;SDS011;2245;48.136;13.428;2023-04-16T04:48:20;1.63;;;1.40;;
4464;SDS011;2245;48.136;13.428;2023-04-16T04:50:50;2.07;;;1.93;;
4464;SDS011;2245;48.136;13.428;2023-04-16T04:53:17;2.10;;;1.90;;
4464;SDS011;2245;48.136;13.428;2023-04-16T04:55:44;1.70;;;1.60;;
4464;SDS011;2245;48.136;13.428;2023-04-16T04:58:11;1.40;;;1.30;;
4464;SDS011;2245;48.136;13.428;2023-04-16T05:00:38;1.63;;;1.53;;
4464;SDS011;2245;48.136;13.428;2023-04-16T05:03:08;2.27;;;2.07;;
4464;SDS011;2245;48.136;13.428;2023-04-16T05:05:38;3.70;;;1.90;;
4464;SDS011;2245;48.136;13.428;2023-04-16T05:08:05;2.50;;;2.30;;
4464;SDS011;2245;48.136;13.428;2023-04-16T05:10:31;3.27;;;2.33;;
4464;SDS011;2245;48.136;13.428;2023-04-16T05:12:58;4.43;;;2.30;;
4464;SDS011;2245;48.136;13.428;2023-04-16T05:15:25;5.20;;;3.10;;
4464;SDS011;2245;48.136;13.428;2023-04-16T05:17:52;3.60;;;2.73;;
4464;SDS011;2245;48.136;13.428;2023-04-16T05:20:20;3.30;;;2.40;;
4464;SDS011;2245;48.136;13.428;2023-04-16T05:22:49;4.13;;;3.20;;
4464;SDS011;2245;48.136;13.428;2023-04-16T05:25:16;7.77;;;3.00;;
4464;SDS011;2245;48.136;13.428;2023-04-16T05:27:43;7.80;;;4.20;;
4464;SDS011;2245;48.136;13.428;2023-04-16T05:30:10;5.23;;;3.30;;
4464;SDS011;2245;48.136;13.428;2023-04-16T05:32:37;5.10;;;3.67;;
4464;SDS011;2245;48.136;13.428;2023-04-16T05:35:04;5.13;;;3.70;;
4464;SDS011;2245;48.136;13.428;2023-04-16T05:37:32;7.70;;;4.43;;
4464;SDS011;2245;48.136;13.428;2023-04-16T05:40:00;4.80;;;4.00;;
4464;SDS011;2245;48.136;13.428;2023-04-16T05:42:28;6.53;;;4.27;;
4464;SDS011;2245;48.136;13.428;2023-04-16T05:44:55;4.10;;;3.40;;
4464;SDS011;2245;48.136;13.428;2023-04-16T05:47:22;7.37;;;4.00;;
4464;SDS011;2245;48.136;13.428;2023-04-16T05:49:49;7.23;;;4.50;;
4464;SDS011;2245;48.136;13.428;2023-04-16T05:52:16;6.83;;;3.77;;
4464;SDS011;2245;48.136;13.428;2023-04-16T05:54:43;4.87;;;3.50;;
4464;SDS011;2245;48.136;13.428;2023-04-16T05:57:11;4.17;;;3.40;;
4464;SDS011;2245;48.136;13.428;2023-04-16T05:59:38;4.00;;;3.20;;
4464;SDS011;2245;48.136;13.428;2023-04-16T06:02:05;6.40;;;4.30;;
4464;SDS011;2245;48.136;13.428;2023-04-16T06:04:32;7.13;;;4.40;;
4464;SDS011;2245;48.136;13.428;2023-04-16T06:06:59;5.43;;;3.70;;
4464;SDS011;2245;48.136;13.428;2023-04-16T06:09:26;10.20;;;5.43;;
4464;SDS011;2245;48.136;13.428;2023-04-16T06:11:54;8.07;;;5.03;;
4464;SDS011;2245;48.136;13.428;2023-04-16T06:14:23;7.47;;;5.07;;
4464;SDS011;2245;48.136;13.428;2023-04-16T06:16:50;7.90;;;5.20;;
4464;SDS011;2245;48.136;13.428;2023-04-16T06:19:17;9.70;;;6.20;;
4464;SDS011;2245;48.136;13.428;2023-04-16T06:21:43;8.03;;;5.57;;
4464;SDS011;2245;48.136;13.428;2023-04-16T06:24:10;7.87;;;5.93;;
4464;SDS011;2245;48.136;13.428;2023-04-16T06:26:37;9.60;;;5.90;;
4464;SDS011;2245;48.136;13.428;2023-04-16T06:29:04;8.03;;;5.70;;
4464;SDS011;2245;48.136;13.428;2023-04-16T06:31:32;12.70;;;5.67;;
4464;SDS011;2245;48.136;13.428;2023-04-16T06:33:59;10.43;;;5.87;;
4464;SDS011;2245;48.136;13.428;2023-04-16T06:36:26;10.00;;;6.67;;
4464;SDS011;2245;48.136;13.428;2023-04-16T06:38:53;9.53;;;5.47;;
4464;SDS011;2245;48.136;13.428;2023-04-16T06:41:20;9.97;;;6.20;;
4464;SDS011;2245;48.136;13.428;2023-04-16T06:43:49;9.43;;;5.17;;
4464;SDS011;2245;48.136;13.428;2023-04-16T06:46:16;9.40;;;6.10;;
4464;SDS011;2245;48.136;13.428;2023-04-16T06:48:44;9.13;;;6.40;;
4464;SDS011;2245;48.136;13.428;2023-04-16T06:51:11;8.83;;;5.23;;
4464;SDS011;2245;48.136;13.428;2023-04-16T06:53:38;8.10;;;5.53;;
4464;SDS011;2245;48.136;13.428;2023-04-16T06:56:05;8.40;;;5.40;;
4464;SDS011;2245;48.136;13.428;2023-04-16T06:58:32;7.13;;;5.30;;
4464;SDS011;2245;48.136;13.428;2023-04-16T07:00:59;6.43;;;5.03;;
4464;SDS011;2245;48.136;13.428;2023-04-16T07:03:26;7.57;;;5.53;;
4464;SDS011;2245;48.136;13.428;2023-04-16T07:05:55;9.70;;;5.93;;
4464;SDS011;2245;48.136;13.428;2023-04-16T07:08:21;9.53;;;6.47;;
4464;SDS011;2245;48.136;13.428;2023-04-16T07:10:49;9.70;;;6.10;;
4464;SDS011;2245;48.136;13.428;2023-04-16T07:13:17;8.90;;;5.17;;
4464;SDS011;2245;48.136;13.428;2023-04-16T07:15:44;8.57;;;6.40;;
4464;SDS011;2245;48.136;13.428;2023-04-16T07:18:11;8.93;;;6.03;;
4464;SDS011;2245;48.136;13.428;2023-04-16T07:20:38;10.17;;;5.70;;
4464;SDS011;2245;48.136;13.428;2023-04-16T07:23:06;10.23;;;7.20;;
4464;SDS011;2245;48.136;13.428;2023-04-16T07:25:33;10.67;;;6.97;;
4464;SDS011;2245;48.136;13.428;2023-04-16T07:28:00;9.43;;;5.93;;
4464;SDS011;2245;48.136;13.428;2023-04-16T07:30:28;10.50;;;6.27;;
4464;SDS011;2245;48.136;13.428;2023-04-16T07:32:58;7.90;;;5.80;;
4464;SDS011;2245;48.136;13.428;2023-04-16T07:35:25;7.90;;;5.90;;
4464;SDS011;2245;48.136;13.428;2023-04-16T07:37:52;10.70;;;6.63;;
4464;SDS011;2245;48.136;13.428;2023-04-16T07:40:20;9.20;;;6.50;;
4464;SDS011;2245;48.136;13.428;2023-04-16T07:42:47;6.97;;;5.77;;
4464;SDS011;2245;48.136;13.428;2023-04-16T07:45:14;9.60;;;6.30;;
4464;SDS011;2245;48.136;13.428;2023-04-16T07:47:41;10.97;;;6.43;;
4464;SDS011;2245;48.136;13.428;2023-04-16T07:50:08;7.67;;;5.43;;
4464;SDS011;2245;48.136;13.428;2023-04-16T07:52:35;8.07;;;5.93;;
4464;SDS011;2245;48.136;13.428;2023-04-16T07:55:05;7.50;;;5.30;;
4464;SDS011;2245;48.136;13.428;2023-04-16T07:57:34;10.47;;;5.73;;
4464;SDS011;2245;48.136;13.428;2023-04-16T08:00:01;12.33;;;6.13;;
4464;SDS011;2245;48.136;13.428;2023-04-16T08:02:29;7.57;;;6.20;;
4464;SDS011;2245;48.136;13.428;2023-04-16T08:04:56;7.40;;;5.20;;
4464;SDS011;2245;48.136;13.428;2023-04-16T08:07:22;8.10;;;5.53;;
4464;SDS011;2245;48.136;13.428;2023-04-16T08:09:50;6.70;;;5.40;;
4464;SDS011;2245;48.136;13.428;2023-04-16T08:12:17;10.77;;;7.50;;
4464;SDS011;2245;48.136;13.428;2023-04-16T08:14:46;8.07;;;5.70;;
4464;SDS011;2245;48.136;13.428;2023-04-16T08:17:13;5.83;;;4.67;;
4464;SDS011;2245;48.136;13.428;2023-04-16T08:19:40;8.47;;;6.67;;
4464;SDS011;2245;48.136;13.428;2023-04-16T08:22:07;18.10;;;5.80;;
4464;SDS011;2245;48.136;13.428;2023-04-16T08:24:34;5.27;;;4.53;;
4464;SDS011;2245;48.136;13.428;2023-04-16T08:27:01;5.93;;;4.50;;
4464;SDS011;2245;48.136;13.428;2023-04-16T08:29:28;6.73;;;5.63;;
4464;SDS011;2245;48.136;13.428;2023-04-16T08:31:56;6.37;;;4.90;;
4464;SDS011;2245;48.136;13.428;2023-04-16T08:34:24;8.43;;;5.40;;
4464;SDS011;2245;48.136;13.428;2023-04-16T08:36:51;7.67;;;4.87;;
4464;SDS011;2245;48.136;13.428;2023-04-16T08:39:18;6.40;;;4.80;;
4464;SDS011;2245;48.136;13.428;2023-04-16T08:41:45;7.87;;;5.57;;
4464;SDS011;2245;48.136;13.428;2023-04-16T08:44:13;7.60;;;4.97;;
4464;SDS011;2245;48.136;13.428;2023-04-16T08:46:45;6.13;;;3.70;;
4464;SDS011;2245;48.136;13.428;2023-04-16T08:49:14;5.97;;;4.50;;
4464;SDS011;2245;48.136;13.428;2023-04-16T08:51:43;5.80;;;4.23;;
4464;SDS011;2245;48.136;13.428;2023-04-16T08:54:13;7.83;;;4.63;;
4464;SDS011;2245;48.136;13.428;2023-04-16T08:56:41;7.60;;;5.40;;
4464;SDS011;2245;48.136;13.428;2023-04-16T08:59:08;5.43;;;4.50;;
4464;SDS011;2245;48.136;13.428;2023-04-16T09:01:34;5.53;;;4.27;;
4464;SDS011;2245;48.136;13.428;2023-04-16T09:04:03;7.10;;;5.10;;
4464;SDS011;2245;48.136;13.428;2023-04-16T09:06:32;5.27;;;4.00;;
4464;SDS011;2245;48.136;13.428;2023-04-16T09:09:00;6.37;;;5.03;;
4464;SDS011;2245;48.136;13.428;2023-04-16T09:11:29;7.10;;;5.60;;
4464;SDS011;2245;48.136;13.428;2023-04-16T09:13:56;5.50;;;4.50;;
4464;SDS011;2245;48.136;13.428;2023-04-16T09:16:23;6.53;;;5.27;;
4464;SDS011;2245;48.136;13.428;2023-04-16T09:18:50;7.17;;;4.93;;
4464;SDS011;2245;48.136;13.428;2023-04-16T09:21:17;8.47;;;5.37;;
4464;SDS011;2245;48.136;13.428;2023-04-16T09:23:46;11.20;;;7.67;;
4464;SDS011;2245;48.136;13.428;2023-04-16T09:26:13;13.70;;;8.27;;
4464;SDS011;2245;48.136;13.428;2023-04-16T09:28:41;17.50;;;9.13;;
4464;SDS011;2245;48.136;13.428;2023-04-16T09:31:09;16.90;;;10.73;;
4464;SDS011;2245;48.136;13.428;2023-04-16T09:33:37;9.30;;;5.50;;
4464;SDS011;2245;48.136;13.428;2023-04-16T09:36:04;7.23;;;5.90;;
4464;SDS011;2245;48.136;13.428;2023-04-16T09:38:49;5.40;;;4.90;;
4464;SDS011;2245;48.136;13.428;2023-04-16T09:41:17;9.27;;;6.53;;
4464;SDS011;2245;48.136;13.428;2023-04-16T09:43:48;11.50;;;6.20;;
4464;SDS011;2245;48.136;13.428;2023-04-16T09:46:20;7.63;;;5.80;;
4464;SDS011;2245;48.136;13.428;2023-04-16T09:48:46;8.20;;;5.43;;
4464;SDS011;2245;48.136;13.428;2023-04-16T09:51:13;7.30;;;6.30;;
4464;SDS011;2245;48.136;13.428;2023-04-16T09:53:40;7.10;;;5.57;;
4464;SDS011;2245;48.136;13.428;2023-04-16T09:56:10;11.73;;;6.20;;
4464;SDS011;2245;48.136;13.428;2023-04-16T09:58:37;24.23;;;17.20;;
4464;SDS011;2245;48.136;13.428;2023-04-16T10:01:06;8.50;;;5.73;;
4464;SDS011;2245;48.136;13.428;2023-04-16T10:03:36;9.00;;;5.77;;
4464;SDS011;2245;48.136;13.428;2023-04-16T10:06:07;6.60;;;5.63;;
4464;SDS011;2245;48.136;13.428;2023-04-16T10:08:35;8.17;;;6.30;;
4464;SDS011;2245;48.136;13.428;2023-04-16T10:11:02;10.23;;;6.30;;
4464;SDS011;2245;48.136;13.428;2023-04-16T10:13:30;8.73;;;5.60;;
4464;SDS011;2245;48.136;13.428;2023-04-16T10:15:57;10.90;;;7.67;;
4464;SDS011;2245;48.136;13.428;2023-04-16T10:18:24;10.60;;;7.40;;
4464;SDS011;2245;48.136;13.428;2023-04-16T10:20:51;10.23;;;6.33;;
4464;SDS011;2245;48.136;13.428;2023-04-16T10:23:18;8.93;;;6.10;;
4464;SDS011;2245;48.136;13.428;2023-04-16T10:25:46;9.13;;;6.40;;
4464;SDS011;2245;48.136;13.428;2023-04-16T10:28:14;8.70;;;6.90;;
4464;SDS011;2245;48.136;13.428;2023-04-16T10:30:42;7.80;;;5.80;;
4464;SDS011;2245;48.136;13.428;2023-04-16T10:33:16;8.20;;;5.90;;
4464;SDS011;2245;48.136;13.428;2023-04-16T10:35:45;9.70;;;6.80;;
4464;SDS011;2245;48.136;13.428;2023-04-16T10:38:23;8.83;;;6.27;;
4464;SDS011;2245;48.136;13.428;2023-04-16T10:40:57;6.77;;;5.93;;
4464;SDS011;2245;48.136;13.428;2023-04-16T10:43:24;7.87;;;5.30;;
4464;SDS011;2245;48.136;13.428;2023-04-16T10:45:55;9.53;;;5.70;;
4464;SDS011;2245;48.136;13.428;2023-04-16T10:48:22;8.43;;;5.27;;
4464;SDS011;2245;48.136;13.428;2023-04-16T10:50:53;7.20;;;5.57;;
4464;SDS011;2245;48.136;13.428;2023-04-16T10:53:22;5.67;;;5.17;;
4464;SDS011;2245;48.136;13.428;2023-04-16T10:55:56;9.80;;;6.60;;
4464;SDS011;2245;48.136;13.428;2023-04-16T10:58:27;7.40;;;5.90;;
4464;SDS011;2245;48.136;13.428;2023-04-16T11:00:55;10.63;;;5.53;;
4464;SDS011;2245;48.136;13.428;2023-04-16T11:03:25;7.20;;;5.23;;
4464;SDS011;2245;48.136;13.428;2023-04-16T11:06:08;6.13;;;5.17;;
4464;SDS011;2245;48.136;13.428;2023-04-16T11:08:36;6.90;;;5.53;;
4464;SDS011;2245;48.136;13.428;2023-04-16T11:11:03;7.00;;;5.87;;
4464;SDS011;2245;48.136;13.428;2023-04-16T11:13:30;10.50;;;6.47;;
4464;SDS011;2245;48.136;13.428;2023-04-16T11:15:59;6.73;;;5.90;;
4464;SDS011;2245;48.136;13.428;2023-04-16T11:18:27;6.80;;;5.80;;
4464;SDS011;2245;48.136;13.428;2023-04-16T11:20:53;8.47;;;6.57;;
4464;SDS011;2245;48.136;13.428;2023-04-16T11:23:20;8.40;;;6.53;;
4464;SDS011;2245;48.136;13.428;2023-04-16T11:25:47;8.03;;;5.70;;
4464;SDS011;2245;48.136;13.428;2023-04-16T11:28:19;8.00;;;5.53;;
4464;SDS011;2245;48.136;13.428;2023-04-16T11:30:46;17.13;;;15.73;;
4464;SDS011;2245;48.136;13.428;2023-04-16T11:33:15;7.87;;;6.57;;
4464;SDS011;2245;48.136;13.428;2023-04-16T11:35:41;7.93;;;4.90;;
4464;SDS011;2245;48.136;13.428;2023-04-16T11:38:10;7.97;;;6.10;;
4464;SDS011;2245;48.136;13.428;2023-04-16T11:40:36;9.53;;;6.73;;
4464;SDS011;2245;48.136;13.428;2023-04-16T11:43:05;12.43;;;7.70;;
4464;SDS011;2245;48.136;13.428;2023-04-16T11:45:40;8.00;;;4.90;;
4464;SDS011;2245;48.136;13.428;2023-04-16T11:48:20;4.70;;;3.60;;
4464;SDS011;2245;48.136;13.428;2023-04-16T11:50:53;7.07;;;5.80;;
4464;SDS011;2245;48.136;13.428;2023-04-16T11:53:21;5.83;;;4.57;;
4464;SDS011;2245;48.136;13.428;2023-04-16T11:55:48;5.43;;;4.30;;
4464;SDS011;2245;48.136;13.428;2023-04-16T11:58:15;5.53;;;4.57;;
4464;SDS011;2245;48.136;13.428;2023-04-16T12:00:42;5.97;;;5.30;;
4464;SDS011;2245;48.136;13.428;2023-04-16T12:03:09;5.23;;;4.60;;
4464;SDS011;2245;48.136;13.428;2023-04-16T12:05:37;12.43;;;6.90;;
4464;SDS011;2245;48.136;13.428;2023-04-16T12:08:06;5.57;;;4.07;;
4464;SDS011;2245;48.136;13.428;2023-04-16T12:10:34;5.13;;;4.10;;
4464;SDS011;2245;48.136;13.428;2023-04-16T12:13:09;6.50;;;3.73;;
4464;SDS011;2245;48.136;13.428;2023-04-16T12:15:43;4.37;;;2.80;;
4464;SDS011;2245;48.136;13.428;2023-04-16T12:18:11;3.20;;;3.00;;
4464;SDS011;2245;48.136;13.428;2023-04-16T12:20:40;3.90;;;3.50;;
4464;SDS011;2245;48.136;13.428;2023-04-16T12:23:07;4.00;;;3.07;;
4464;SDS011;2245;48.136;13.428;2023-04-16T12:25:34;3.27;;;2.97;;
4464;SDS011;2245;48.136;13.428;2023-04-16T12:28:01;5.00;;;3.10;;
4464;SDS011;2245;48.136;13.428;2023-04-16T12:30:28;3.17;;;2.97;;
4464;SDS011;2245;48.136;13.428;2023-04-16T12:35:42;4.27;;;3.73;;
4464;SDS011;2245;48.136;13.428;2023-04-16T12:38:09;4.67;;;3.47;;
4464;SDS011;2245;48.136;13.428;2023-04-16T12:40:36;5.60;;;3.67;;
4464;SDS011;2245;48.136;13.428;2023-04-16T12:43:03;4.80;;;3.97;;
4464;SDS011;2245;48.136;13.428;2023-04-16T12:45:30;4.50;;;3.43;;
4464;SDS011;2245;48.136;13.428;2023-04-16T12:47:57;3.33;;;2.83;;
4464;SDS011;2245;48.136;13.428;2023-04-16T12:50:24;2.73;;;2.53;;
4464;SDS011;2245;48.136;13.428;2023-04-16T12:52:54;4.77;;;3.67;;
4464;SDS011;2245;48.136;13.428;2023-04-16T12:55:20;3.03;;;2.73;;
4464;SDS011;2245;48.136;13.428;2023-04-16T12:57:47;3.87;;;3.47;;
4464;SDS011;2245;48.136;13.428;2023-04-16T13:00:17;6.43;;;4.20;;
4464;SDS011;2245;48.136;13.428;2023-04-16T13:02:44;9.77;;;5.50;;
4464;SDS011;2245;48.136;13.428;2023-04-16T13:05:11;3.53;;;3.23;;
4464;SDS011;2245;48.136;13.428;2023-04-16T13:07:40;5.67;;;4.27;;
4464;SDS011;2245;48.136;13.428;2023-04-16T13:10:09;5.83;;;3.33;;
4464;SDS011;2245;48.136;13.428;2023-04-16T13:12:35;4.03;;;3.63;;
4464;SDS011;2245;48.136;13.428;2023-04-16T13:15:03;3.23;;;2.93;;
4464;SDS011;2245;48.136;13.428;2023-04-16T13:17:30;4.63;;;3.40;;
4464;SDS011;2245;48.136;13.428;2023-04-16T13:19:57;5.50;;;3.60;;
4464;SDS011;2245;48.136;13.428;2023-04-16T13:22:24;4.07;;;3.30;;
4464;SDS011;2245;48.136;13.428;2023-04-16T13:24:50;3.83;;;3.43;;
4464;SDS011;2245;48.136;13.428;2023-04-16T13:27:19;4.23;;;3.70;;
4464;SDS011;2245;48.136;13.428;2023-04-16T13:29:45;4.87;;;3.40;;
4464;SDS011;2245;48.136;13.428;2023-04-16T13:32:12;4.50;;;3.60;;
4464;SDS011;2245;48.136;13.428;2023-04-16T13:34:39;4.80;;;3.33;;
4464;SDS011;2245;48.136;13.428;2023-04-16T13:37:06;4.07;;;3.50;;
4464;SDS011;2245;48.136;13.428;2023-04-16T13:39:33;3.83;;;3.07;;
4464;SDS011;2245;48.136;13.428;2023-04-16T13:42:00;5.80;;;4.03;;
4464;SDS011;2245;48.136;13.428;2023-04-16T13:44:29;3.73;;;3.23;;
4464;SDS011;2245;48.136;13.428;2023-04-16T13:46:55;3.87;;;3.17;;
4464;SDS011;2245;48.136;13.428;2023-04-16T13:49:22;2.90;;;2.70;;
4464;SDS011;2245;48.136;13.428;2023-04-16T13:51:49;5.10;;;4.57;;
4464;SDS011;2245;48.136;13.428;2023-04-16T13:54:16;4.37;;;3.90;;
4464;SDS011;2245;48.136;13.428;2023-04-16T13:56:43;3.70;;;3.40;;
4464;SDS011;2245;48.136;13.428;2023-04-16T13:59:10;3.40;;;3.10;;
4464;SDS011;2245;48.136;13.428;2023-04-16T14:01:38;3.77;;;3.40;;
4464;SDS011;2245;48.136;13.428;2023-04-16T14:04:05;2.60;;;2.40;;
4464;SDS011;2245;48.136;13.428;2023-04-16T14:06:32;8.93;;;3.33;;
4464;SDS011;2245;48.136;13.428;2023-04-16T14:08:59;3.90;;;3.37;;
4464;SDS011;2245;48.136;13.428;2023-04-16T14:11:26;4.17;;;3.27;;
4464;SDS011;2245;48.136;13.428;2023-04-16T14:13:53;3.90;;;3.40;;
4464;SDS011;2245;48.136;13.428;2023-04-16T14:16:20;3.40;;;3.10;;
4464;SDS011;2245;48.136;13.428;2023-04-16T14:18:48;3.13;;;2.93;;
4464;SDS011;2245;48.136;13.428;2023-04-16T14:21:16;3.47;;;2.90;;
4464;SDS011;2245;48.136;13.428;2023-04-16T14:23:42;4.10;;;3.70;;
4464;SDS011;2245;48.136;13.428;2023-04-16T14:26:09;3.33;;;3.03;;
4464;SDS011;2245;48.136;13.428;2023-04-16T14:28:36;4.30;;;3.10;;
4464;SDS011;2245;48.136;13.428;2023-04-16T14:31:04;4.90;;;3.93;;
4464;SDS011;2245;48.136;13.428;2023-04-16T14:33:31;6.67;;;3.60;;
4464;SDS011;2245;48.136;13.428;2023-04-16T14:36:00;4.00;;;3.30;;
4464;SDS011;2245;48.136;13.428;2023-04-16T14:38:26;3.70;;;3.10;;
4464;SDS011;2245;48.136;13.428;2023-04-16T14:40:53;4.80;;;3.57;;
4464;SDS011;2245;48.136;13.428;2023-04-16T14:43:20;3.53;;;3.23;;
4464;SDS011;2245;48.136;13.428;2023-04-16T14:45:48;3.93;;;2.87;;
4464;SDS011;2245;48.136;13.428;2023-04-16T14:48:15;3.43;;;3.13;;
4464;SDS011;2245;48.136;13.428;2023-04-16T14:50:42;3.33;;;3.03;;
4464;SDS011;2245;48.136;13.428;2023-04-16T14:53:12;4.10;;;3.60;;
4464;SDS011;2245;48.136;13.428;2023-04-16T14:55:39;4.03;;;3.50;;
4464;SDS011;2245;48.136;13.428;2023-04-16T14:58:06;4.40;;;3.70;;
4464;SDS011;2245;48.136;13.428;2023-04-16T15:00:33;5.40;;;4.00;;
4464;SDS011;2245;48.136;13.428;2023-04-16T15:03:00;4.07;;;3.40;;
4464;SDS011;2245;48.136;13.428;2023-04-16T15:05:28;5.47;;;4.43;;